Weather at Sierra Vista Municipal Airport / Libby Army Air Field

Public forecast

Using degrees Fahrenheit for public forecast. Weather courtesy of forecast.io.

Current aviation weather report (METAR) for Sierra Vista Municipal Airport / Libby Army Air Field

2023/09/26 12:55 (retrieved 34 minutes ago)

KFHU 261255Z AUTO 00000KT 10SM CLR 20/02 A3017 RMK AO2 SLP149 T01980017

Aviation forecast (TAF) for Sierra Vista Municipal Airport / Libby Army Air Field

2023/09/26 12:42 (retrieved 47 minutes ago)

TAF TAF KFHU 261130Z 2612/2718 VRB06KT 9999 SCT120 SCT250 QNH3011INS BECMG 2622/2623 29012KT 9999 FEW150 QNH3008INS WND VRB06KT AFT 27/05 TX34/2621Z TN19/2612Z